sensor_id;sensor_type;location;lat;lon;timestamp;temperature;humidity
22779;DHT22;11556;51.194;3.800;2022-11-20T00:00:47;4.40;99.90
22779;DHT22;11556;51.194;3.800;2022-11-20T00:03:13;4.50;99.90
22779;DHT22;11556;51.194;3.800;2022-11-20T00:05:39;4.40;99.90
22779;DHT22;11556;51.194;3.800;2022-11-20T00:08:04;4.30;99.90
22779;DHT22;11556;51.194;3.800;2022-11-20T00:10:30;4.30;99.90
22779;DHT22;11556;51.194;3.800;2022-11-20T00:12:57;4.30;99.90
22779;DHT22;11556;51.194;3.800;2022-11-20T00:15:23;4.30;99.90
22779;DHT22;11556;51.194;3.800;2022-11-20T00:17:49;4.30;99.90
22779;DHT22;11556;51.194;3.800;2022-11-20T00:20:14;4.30;99.90
22779;DHT22;11556;51.194;3.800;2022-11-20T00:22:40;4.20;99.90
22779;DHT22;11556;51.194;3.800;2022-11-20T00:25:06;4.00;99.90
22779;DHT22;11556;51.194;3.800;2022-11-20T00:27:31;3.90;99.90
22779;DHT22;11556;51.194;3.800;2022-11-20T00:29:57;3.90;99.90
22779;DHT22;11556;51.194;3.800;2022-11-20T00:32:22;3.90;99.90
22779;DHT22;11556;51.194;3.800;2022-11-20T00:34:48;3.90;99.90
22779;DHT22;11556;51.194;3.800;2022-11-20T00:37:13;4.00;99.90
22779;DHT22;11556;51.194;3.800;2022-11-20T00:39:39;4.00;99.90
22779;DHT22;11556;51.194;3.800;2022-11-20T00:42:05;3.90;99.90
22779;DHT22;11556;51.194;3.800;2022-11-20T00:44:30;3.90;99.90
22779;DHT22;11556;51.194;3.800;2022-11-20T00:46:56;3.90;99.90
22779;DHT22;11556;51.194;3.800;2022-11-20T00:49:21;3.80;99.90
22779;DHT22;11556;51.194;3.800;2022-11-20T00:51:47;4.00;99.90
22779;DHT22;11556;51.194;3.800;2022-11-20T00:54:12;4.10;99.90
22779;DHT22;11556;51.194;3.800;2022-11-20T00:56:38;4.10;99.90
22779;DHT22;11556;51.194;3.800;2022-11-20T00:59:04;4.20;99.90
22779;DHT22;11556;51.194;3.800;2022-11-20T01:01:30;4.10;99.90
22779;DHT22;11556;51.194;3.800;2022-11-20T01:03:57;4.20;99.90
22779;DHT22;11556;51.194;3.800;2022-11-20T01:06:24;4.10;99.90
22779;DHT22;11556;51.194;3.800;2022-11-20T01:08:52;4.20;99.90
22779;DHT22;11556;51.194;3.800;2022-11-20T01:11:21;4.30;99.90
22779;DHT22;11556;51.194;3.800;2022-11-20T01:13:48;4.30;99.90
22779;DHT22;11556;51.194;3.800;2022-11-20T01:16:18;4.40;99.90
22779;DHT22;11556;51.194;3.800;2022-11-20T01:18:46;4.30;99.90
22779;DHT22;11556;51.194;3.800;2022-11-20T01:21:15;4.30;99.90
22779;DHT22;11556;51.194;3.800;2022-11-20T01:23:42;4.30;99.90
22779;DHT22;11556;51.194;3.800;2022-11-20T01:26:11;4.30;99.90
22779;DHT22;11556;51.194;3.800;2022-11-20T01:28:37;4.30;99.90
22779;DHT22;11556;51.194;3.800;2022-11-20T01:33:39;4.20;99.90
22779;DHT22;11556;51.194;3.800;2022-11-20T01:36:06;4.10;99.90
22779;DHT22;11556;51.194;3.800;2022-11-20T01:38:32;4.00;99.90
22779;DHT22;11556;51.194;3.800;2022-11-20T01:40:58;4.00;99.90
22779;DHT22;11556;51.194;3.800;2022-11-20T01:43:24;4.10;99.90
22779;DHT22;11556;51.194;3.800;2022-11-20T01:46:15;4.30;99.90
22779;DHT22;11556;51.194;3.800;2022-11-20T01:51:45;4.50;99.90
22779;DHT22;11556;51.194;3.800;2022-11-20T01:54:21;4.80;99.90
22779;DHT22;11556;51.194;3.800;2022-11-20T01:56:51;4.80;99.90
22779;DHT22;11556;51.194;3.800;2022-11-20T01:59:19;4.80;99.90
22779;DHT22;11556;51.194;3.800;2022-11-20T02:01:45;4.90;99.90
22779;DHT22;11556;51.194;3.800;2022-11-20T02:04:12;5.10;99.90
22779;DHT22;11556;51.194;3.800;2022-11-20T02:06:52;5.20;99.90
22779;DHT22;11556;51.194;3.800;2022-11-20T02:09:19;5.30;99.90
22779;DHT22;11556;51.194;3.800;2022-11-20T02:11:44;5.40;99.90
22779;DHT22;11556;51.194;3.800;2022-11-20T02:14:10;5.40;99.90
22779;DHT22;11556;51.194;3.800;2022-11-20T02:16:43;5.50;99.90
22779;DHT22;11556;51.194;3.800;2022-11-20T02:19:27;5.60;99.90
22779;DHT22;11556;51.194;3.800;2022-11-20T02:24:30;5.60;99.90
22779;DHT22;11556;51.194;3.800;2022-11-20T02:27:04;5.30;99.90
22779;DHT22;11556;51.194;3.800;2022-11-20T02:29:39;5.10;99.90
22779;DHT22;11556;51.194;3.800;2022-11-20T02:32:06;5.10;99.90
22779;DHT22;11556;51.194;3.800;2022-11-20T02:34:31;5.00;99.90
22779;DHT22;11556;51.194;3.800;2022-11-20T02:36:59;5.00;99.90
22779;DHT22;11556;51.194;3.800;2022-11-20T02:39:26;5.20;99.90
22779;DHT22;11556;51.194;3.800;2022-11-20T02:41:53;5.10;99.90
22779;DHT22;11556;51.194;3.800;2022-11-20T02:44:20;5.10;99.90
22779;DHT22;11556;51.194;3.800;2022-11-20T02:46:46;4.70;99.90
22779;DHT22;11556;51.194;3.800;2022-11-20T02:49:11;4.50;99.90
22779;DHT22;11556;51.194;3.800;2022-11-20T02:51:37;4.40;99.90
22779;DHT22;11556;51.194;3.800;2022-11-20T02:54:03;4.40;99.90
22779;DHT22;11556;51.194;3.800;2022-11-20T02:56:29;4.30;99.90
22779;DHT22;11556;51.194;3.800;2022-11-20T02:58:55;4.40;99.90
22779;DHT22;11556;51.194;3.800;2022-11-20T03:01:20;4.50;99.90
22779;DHT22;11556;51.194;3.800;2022-11-20T03:03:46;4.70;99.90
22779;DHT22;11556;51.194;3.800;2022-11-20T03:06:14;4.80;99.90
22779;DHT22;11556;51.194;3.800;2022-11-20T03:08:40;4.90;99.90
22779;DHT22;11556;51.194;3.800;2022-11-20T03:11:07;5.00;99.90
22779;DHT22;11556;51.194;3.800;2022-11-20T03:13:33;5.00;99.90
22779;DHT22;11556;51.194;3.800;2022-11-20T03:16:15;4.90;99.90
22779;DHT22;11556;51.194;3.800;2022-11-20T03:18:41;5.00;99.90
22779;DHT22;11556;51.194;3.800;2022-11-20T03:21:08;5.10;99.90
22779;DHT22;11556;51.194;3.800;2022-11-20T03:23:35;5.10;99.90
22779;DHT22;11556;51.194;3.800;2022-11-20T03:26:17;5.10;99.90
22779;DHT22;11556;51.194;3.800;2022-11-20T03:28:56;5.00;99.90
22779;DHT22;11556;51.194;3.800;2022-11-20T03:31:31;4.90;99.90
22779;DHT22;11556;51.194;3.800;2022-11-20T03:33:58;4.90;99.90
22779;DHT22;11556;51.194;3.800;2022-11-20T03:36:24;5.00;99.90
22779;DHT22;11556;51.194;3.800;2022-11-20T03:38:49;5.00;99.90
22779;DHT22;11556;51.194;3.800;2022-11-20T03:41:20;5.00;99.90
22779;DHT22;11556;51.194;3.800;2022-11-20T03:43:49;5.00;99.90
22779;DHT22;11556;51.194;3.800;2022-11-20T03:46:16;5.00;99.90
22779;DHT22;11556;51.194;3.800;2022-11-20T03:48:42;5.00;99.90
22779;DHT22;11556;51.194;3.800;2022-11-20T03:53:34;4.90;99.90
22779;DHT22;11556;51.194;3.800;2022-11-20T03:55:59;4.90;99.90
22779;DHT22;11556;51.194;3.800;2022-11-20T03:58:25;4.90;99.90
22779;DHT22;11556;51.194;3.800;2022-11-20T04:00:51;4.70;99.90
22779;DHT22;11556;51.194;3.800;2022-11-20T04:03:16;4.80;99.90
22779;DHT22;11556;51.194;3.800;2022-11-20T04:05:42;5.00;99.90
22779;DHT22;11556;51.194;3.800;2022-11-20T04:08:07;5.00;99.90
22779;DHT22;11556;51.194;3.800;2022-11-20T04:10:33;4.80;99.90
22779;DHT22;11556;51.194;3.800;2022-11-20T04:12:59;4.80;99.90
22779;DHT22;11556;51.194;3.800;2022-11-20T04:15:24;4.90;99.90
22779;DHT22;11556;51.194;3.800;2022-11-20T04:17:50;5.10;99.90
22779;DHT22;11556;51.194;3.800;2022-11-20T04:20:15;5.20;99.90
22779;DHT22;11556;51.194;3.800;2022-11-20T04:22:41;5.30;99.90
22779;DHT22;11556;51.194;3.800;2022-11-20T04:25:07;5.20;99.90
22779;DHT22;11556;51.194;3.800;2022-11-20T04:27:33;5.30;99.90
22779;DHT22;11556;51.194;3.800;2022-11-20T04:29:58;5.30;99.90
22779;DHT22;11556;51.194;3.800;2022-11-20T04:32:24;5.30;99.90
22779;DHT22;11556;51.194;3.800;2022-11-20T04:34:49;5.30;99.90
22779;DHT22;11556;51.194;3.800;2022-11-20T04:37:15;5.30;99.90
22779;DHT22;11556;51.194;3.800;2022-11-20T04:39:40;5.40;99.90
22779;DHT22;11556;51.194;3.800;2022-11-20T04:42:08;5.40;99.90
22779;DHT22;11556;51.194;3.800;2022-11-20T04:44:53;5.40;99.90
22779;DHT22;11556;51.194;3.800;2022-11-20T04:47:18;5.50;99.90
22779;DHT22;11556;51.194;3.800;2022-11-20T04:49:44;5.50;99.90
22779;DHT22;11556;51.194;3.800;2022-11-20T04:52:09;5.40;99.90
22779;DHT22;11556;51.194;3.800;2022-11-20T04:54:35;5.10;99.90
22779;DHT22;11556;51.194;3.800;2022-11-20T04:57:00;4.90;99.90
22779;DHT22;11556;51.194;3.800;2022-11-20T04:59:26;4.60;99.90
22779;DHT22;11556;51.194;3.800;2022-11-20T05:01:52;4.40;99.90
22779;DHT22;11556;51.194;3.800;2022-11-20T05:04:17;4.30;99.90
22779;DHT22;11556;51.194;3.800;2022-11-20T05:06:43;4.20;99.90
22779;DHT22;11556;51.194;3.800;2022-11-20T05:09:08;4.10;99.90
22779;DHT22;11556;51.194;3.800;2022-11-20T05:11:34;4.00;99.90
22779;DHT22;11556;51.194;3.800;2022-11-20T05:14:00;3.90;99.90
22779;DHT22;11556;51.194;3.800;2022-11-20T05:16:25;3.90;99.90
22779;DHT22;11556;51.194;3.800;2022-11-20T05:18:52;3.80;99.90
22779;DHT22;11556;51.194;3.800;2022-11-20T05:21:18;4.00;99.90
22779;DHT22;11556;51.194;3.800;2022-11-20T05:23:45;3.90;99.90
22779;DHT22;11556;51.194;3.800;2022-11-20T05:26:19;3.80;99.90
22779;DHT22;11556;51.194;3.800;2022-11-20T05:28:46;3.80;99.90
22779;DHT22;11556;51.194;3.800;2022-11-20T05:31:15;3.90;99.90
22779;DHT22;11556;51.194;3.800;2022-11-20T05:33:43;4.10;99.90
22779;DHT22;11556;51.194;3.800;2022-11-20T05:36:10;4.30;99.90
22779;DHT22;11556;51.194;3.800;2022-11-20T05:38:37;4.40;99.90
22779;DHT22;11556;51.194;3.800;2022-11-20T05:41:09;4.50;99.90
22779;DHT22;11556;51.194;3.800;2022-11-20T05:43:37;4.50;99.90
22779;DHT22;11556;51.194;3.800;2022-11-20T05:46:04;4.70;99.90
22779;DHT22;11556;51.194;3.800;2022-11-20T05:48:30;4.60;99.90
22779;DHT22;11556;51.194;3.800;2022-11-20T05:51:00;4.50;99.90
22779;DHT22;11556;51.194;3.800;2022-11-20T05:53:26;4.60;99.90
22779;DHT22;11556;51.194;3.800;2022-11-20T05:58:31;4.90;99.90
22779;DHT22;11556;51.194;3.800;2022-11-20T06:01:13;4.90;99.90
22779;DHT22;11556;51.194;3.800;2022-11-20T06:03:40;4.90;99.90
22779;DHT22;11556;51.194;3.800;2022-11-20T06:06:08;4.90;99.90
22779;DHT22;11556;51.194;3.800;2022-11-20T06:08:33;4.90;99.90
22779;DHT22;11556;51.194;3.800;2022-11-20T06:11:06;4.80;99.90
22779;DHT22;11556;51.194;3.800;2022-11-20T06:13:33;4.80;99.90
22779;DHT22;11556;51.194;3.800;2022-11-20T06:15:59;4.90;99.90
22779;DHT22;11556;51.194;3.800;2022-11-20T06:18:26;5.00;99.90
22779;DHT22;11556;51.194;3.800;2022-11-20T06:21:09;5.00;99.90
22779;DHT22;11556;51.194;3.800;2022-11-20T06:23:35;4.90;99.90
22779;DHT22;11556;51.194;3.800;2022-11-20T06:26:03;5.00;99.90
22779;DHT22;11556;51.194;3.800;2022-11-20T06:28:29;5.20;99.90
22779;DHT22;11556;51.194;3.800;2022-11-20T06:30:55;5.40;99.90
22779;DHT22;11556;51.194;3.800;2022-11-20T06:33:20;5.50;99.90
22779;DHT22;11556;51.194;3.800;2022-11-20T06:35:46;5.60;99.90
22779;DHT22;11556;51.194;3.800;2022-11-20T06:38:11;5.70;99.90
22779;DHT22;11556;51.194;3.800;2022-11-20T06:40:40;5.80;99.90
22779;DHT22;11556;51.194;3.800;2022-11-20T06:43:06;5.80;99.90
22779;DHT22;11556;51.194;3.800;2022-11-20T06:45:31;5.80;99.90
22779;DHT22;11556;51.194;3.800;2022-11-20T06:47:57;5.70;99.90
22779;DHT22;11556;51.194;3.800;2022-11-20T06:50:24;5.70;99.90
22779;DHT22;11556;51.194;3.800;2022-11-20T06:52:49;5.80;99.90
22779;DHT22;11556;51.194;3.800;2022-11-20T06:55:15;5.50;99.90
22779;DHT22;11556;51.194;3.800;2022-11-20T06:57:40;5.40;99.90
22779;DHT22;11556;51.194;3.800;2022-11-20T07:00:06;5.40;99.90
22779;DHT22;11556;51.194;3.800;2022-11-20T07:02:32;5.30;99.90
22779;DHT22;11556;51.194;3.800;2022-11-20T07:04:58;5.20;99.90
22779;DHT22;11556;51.194;3.800;2022-11-20T07:07:23;5.40;99.90
22779;DHT22;11556;51.194;3.800;2022-11-20T07:09:49;5.60;99.90
22779;DHT22;11556;51.194;3.800;2022-11-20T07:12:14;5.80;99.90
22779;DHT22;11556;51.194;3.800;2022-11-20T07:14:40;5.80;99.90
22779;DHT22;11556;51.194;3.800;2022-11-20T07:17:05;5.90;99.90
22779;DHT22;11556;51.194;3.800;2022-11-20T07:19:31;6.00;99.90
22779;DHT22;11556;51.194;3.800;2022-11-20T07:21:56;6.00;99.90
22779;DHT22;11556;51.194;3.800;2022-11-20T07:24:22;5.70;99.90
22779;DHT22;11556;51.194;3.800;2022-11-20T07:26:47;5.60;99.90
22779;DHT22;11556;51.194;3.800;2022-11-20T07:29:15;5.40;99.90
22779;DHT22;11556;51.194;3.800;2022-11-20T07:31:41;5.40;99.90
22779;DHT22;11556;51.194;3.800;2022-11-20T07:34:07;5.50;99.90
22779;DHT22;11556;51.194;3.800;2022-11-20T07:36:33;5.50;99.90
22779;DHT22;11556;51.194;3.800;2022-11-20T07:38:58;5.40;99.90
22779;DHT22;11556;51.194;3.800;2022-11-20T07:41:24;5.40;99.90
22779;DHT22;11556;51.194;3.800;2022-11-20T07:43:49;5.50;99.90
22779;DHT22;11556;51.194;3.800;2022-11-20T07:46:15;5.40;99.90
22779;DHT22;11556;51.194;3.800;2022-11-20T07:48:41;5.50;99.90
22779;DHT22;11556;51.194;3.800;2022-11-20T07:51:06;5.60;99.90
22779;DHT22;11556;51.194;3.800;2022-11-20T07:53:32;5.80;99.90
22779;DHT22;11556;51.194;3.800;2022-11-20T07:56:01;6.00;99.90
22779;DHT22;11556;51.194;3.800;2022-11-20T07:58:29;6.20;99.90
22779;DHT22;11556;51.194;3.800;2022-11-20T08:00:55;6.10;99.90
22779;DHT22;11556;51.194;3.800;2022-11-20T08:03:20;6.10;99.90
22779;DHT22;11556;51.194;3.800;2022-11-20T08:05:46;6.10;99.90
22779;DHT22;11556;51.194;3.800;2022-11-20T08:08:11;6.20;99.90
22779;DHT22;11556;51.194;3.800;2022-11-20T08:10:37;6.20;99.90
22779;DHT22;11556;51.194;3.800;2022-11-20T08:13:02;6.10;99.90
22779;DHT22;11556;51.194;3.800;2022-11-20T08:15:50;6.10;99.90
22779;DHT22;11556;51.194;3.800;2022-11-20T08:18:16;6.00;99.90
22779;DHT22;11556;51.194;3.800;2022-11-20T08:20:42;6.00;99.90
22779;DHT22;11556;51.194;3.800;2022-11-20T08:23:08;6.00;99.90
22779;DHT22;11556;51.194;3.800;2022-11-20T08:25:35;6.00;99.90
22779;DHT22;11556;51.194;3.800;2022-11-20T08:28:03;6.00;99.90
22779;DHT22;11556;51.194;3.800;2022-11-20T08:30:30;6.00;99.90
22779;DHT22;11556;51.194;3.800;2022-11-20T08:33:04;5.90;99.90
22779;DHT22;11556;51.194;3.800;2022-11-20T08:35:33;6.00;99.90
22779;DHT22;11556;51.194;3.800;2022-11-20T08:38:00;6.10;99.90
22779;DHT22;11556;51.194;3.800;2022-11-20T08:40:25;6.10;99.90
22779;DHT22;11556;51.194;3.800;2022-11-20T08:42:51;6.00;99.90
22779;DHT22;11556;51.194;3.800;2022-11-20T08:45:17;6.00;99.90
22779;DHT22;11556;51.194;3.800;2022-11-20T08:47:43;6.00;99.90
22779;DHT22;11556;51.194;3.800;2022-11-20T08:50:14;6.00;99.90
22779;DHT22;11556;51.194;3.800;2022-11-20T08:52:40;6.20;99.90
22779;DHT22;11556;51.194;3.800;2022-11-20T08:55:07;6.30;99.90
22779;DHT22;11556;51.194;3.800;2022-11-20T08:57:37;6.30;99.90
22779;DHT22;11556;51.194;3.800;2022-11-20T09:00:04;6.20;99.90
22779;DHT22;11556;51.194;3.800;2022-11-20T09:02:30;6.20;99.90
22779;DHT22;11556;51.194;3.800;2022-11-20T09:04:55;6.20;99.90
22779;DHT22;11556;51.194;3.800;2022-11-20T09:07:21;6.30;99.90
22779;DHT22;11556;51.194;3.800;2022-11-20T09:09:46;6.40;99.90
22779;DHT22;11556;51.194;3.800;2022-11-20T09:12:13;6.50;99.90
22779;DHT22;11556;51.194;3.800;2022-11-20T09:14:39;6.40;99.90
22779;DHT22;11556;51.194;3.800;2022-11-20T09:17:04;6.40;99.90
22779;DHT22;11556;51.194;3.800;2022-11-20T09:19:30;6.30;99.90
22779;DHT22;11556;51.194;3.800;2022-11-20T09:21:55;6.30;99.90
22779;DHT22;11556;51.194;3.800;2022-11-20T09:24:21;6.50;99.90
22779;DHT22;11556;51.194;3.800;2022-11-20T09:26:46;6.60;99.90
22779;DHT22;11556;51.194;3.800;2022-11-20T09:29:12;6.70;99.90
22779;DHT22;11556;51.194;3.800;2022-11-20T09:31:38;6.70;99.90
22779;DHT22;11556;51.194;3.800;2022-11-20T09:34:03;6.70;99.90
22779;DHT22;11556;51.194;3.800;2022-11-20T09:36:29;6.80;99.90
22779;DHT22;11556;51.194;3.800;2022-11-20T09:38:54;6.90;99.90
22779;DHT22;11556;51.194;3.800;2022-11-20T09:41:45;6.80;99.90
22779;DHT22;11556;51.194;3.800;2022-11-20T09:47:08;6.90;99.90
22779;DHT22;11556;51.194;3.800;2022-11-20T09:52:20;7.00;99.90
22779;DHT22;11556;51.194;3.800;2022-11-20T09:54:48;7.00;99.90
22779;DHT22;11556;51.194;3.800;2022-11-20T09:57:18;7.10;99.90
22779;DHT22;11556;51.194;3.800;2022-11-20T09:59:51;7.20;99.90
22779;DHT22;11556;51.194;3.800;2022-11-20T10:02:40;7.30;99.90
22779;DHT22;11556;51.194;3.800;2022-11-20T10:13:45;7.40;99.90
22779;DHT22;11556;51.194;3.800;2022-11-20T10:19:08;7.40;99.90
22779;DHT22;11556;51.194;3.800;2022-11-20T10:23:00;7.40;99.90
22779;DHT22;11556;51.194;3.800;2022-11-20T10:25:24;7.70;99.90
22779;DHT22;11556;51.194;3.800;2022-11-20T10:30:18;7.80;99.90
22779;DHT22;11556;51.194;3.800;2022-11-20T10:32:58;8.00;99.90
22779;DHT22;11556;51.194;3.800;2022-11-20T10:38:53;8.20;99.90
22779;DHT22;11556;51.194;3.800;2022-11-20T10:41:24;8.50;99.90
22779;DHT22;11556;51.194;3.800;2022-11-20T10:44:05;8.60;99.90
22779;DHT22;11556;51.194;3.800;2022-11-20T10:46:43;8.80;99.90
22779;DHT22;11556;51.194;3.800;2022-11-20T10:49:17;8.90;99.90
22779;DHT22;11556;51.194;3.800;2022-11-20T10:54:43;9.10;99.90
22779;DHT22;11556;51.194;3.800;2022-11-20T11:02:32;9.40;99.90
22779;DHT22;11556;51.194;3.800;2022-11-20T11:07:41;9.70;99.90
22779;DHT22;11556;51.194;3.800;2022-11-20T11:12:50;9.80;99.90
22779;DHT22;11556;51.194;3.800;2022-11-20T11:15:48;9.90;99.90
22779;DHT22;11556;51.194;3.800;2022-11-20T11:18:24;10.00;99.90
22779;DHT22;11556;51.194;3.800;2022-11-20T11:20:51;9.90;99.90
22779;DHT22;11556;51.194;3.800;2022-11-20T11:25:59;10.30;99.90
22779;DHT22;11556;51.194;3.800;2022-11-20T11:28:26;10.30;99.90
22779;DHT22;11556;51.194;3.800;2022-11-20T11:30:53;10.30;99.90
22779;DHT22;11556;51.194;3.800;2022-11-20T11:33:30;10.50;99.90
22779;DHT22;11556;51.194;3.800;2022-11-20T11:35:59;10.30;99.90
22779;DHT22;11556;51.194;3.800;2022-11-20T11:38:35;10.40;99.90
22779;DHT22;11556;51.194;3.800;2022-11-20T11:41:03;10.40;99.90
22779;DHT22;11556;51.194;3.800;2022-11-20T11:43:33;10.30;99.90
22779;DHT22;11556;51.194;3.800;2022-11-20T11:46:28;10.20;99.90
22779;DHT22;11556;51.194;3.800;2022-11-20T11:51:46;10.10;99.90
22779;DHT22;11556;51.194;3.800;2022-11-20T11:54:23;10.00;99.90
22779;DHT22;11556;51.194;3.800;2022-11-20T11:56:51;10.10;99.90
22779;DHT22;11556;51.194;3.800;2022-11-20T11:59:28;10.00;99.90
22779;DHT22;11556;51.194;3.800;2022-11-20T12:02:03;9.80;99.90
22779;DHT22;11556;51.194;3.800;2022-11-20T12:04:54;9.60;99.90
22779;DHT22;11556;51.194;3.800;2022-11-20T12:09:58;9.40;99.90
22779;DHT22;11556;51.194;3.800;2022-11-20T12:12:36;9.40;99.90
22779;DHT22;11556;51.194;3.800;2022-11-20T12:15:03;9.40;99.90
22779;DHT22;11556;51.194;3.800;2022-11-20T12:17:29;9.40;99.90
22779;DHT22;11556;51.194;3.800;2022-11-20T12:19:55;9.20;99.90
22779;DHT22;11556;51.194;3.800;2022-11-20T12:22:31;9.00;99.90
22779;DHT22;11556;51.194;3.800;2022-11-20T12:25:22;9.00;99.90
22779;DHT22;11556;51.194;3.800;2022-11-20T12:30:58;8.90;99.90
22779;DHT22;11556;51.194;3.800;2022-11-20T12:36:49;8.80;99.90
22779;DHT22;11556;51.194;3.800;2022-11-20T12:39:35;8.90;99.90
22779;DHT22;11556;51.194;3.800;2022-11-20T12:45:20;9.00;99.90
22779;DHT22;11556;51.194;3.800;2022-11-20T13:01:32;8.70;99.90
22779;DHT22;11556;51.194;3.800;2022-11-20T13:04:24;8.70;99.90
22779;DHT22;11556;51.194;3.800;2022-11-20T13:06:54;8.70;99.90
22779;DHT22;11556;51.194;3.800;2022-11-20T13:09:20;8.80;99.90
22779;DHT22;11556;51.194;3.800;2022-11-20T13:12:00;8.70;99.90
22779;DHT22;11556;51.194;3.800;2022-11-20T13:14:34;8.70;99.90
22779;DHT22;11556;51.194;3.800;2022-11-20T13:17:16;8.70;99.90
22779;DHT22;11556;51.194;3.800;2022-11-20T13:19:52;8.70;99.90
22779;DHT22;11556;51.194;3.800;2022-11-20T13:22:51;8.90;99.90
22779;DHT22;11556;51.194;3.800;2022-11-20T13:27:56;8.90;99.90
22779;DHT22;11556;51.194;3.800;2022-11-20T13:30:26;9.00;99.90
22779;DHT22;11556;51.194;3.800;2022-11-20T13:33:08;9.00;99.90
22779;DHT22;11556;51.194;3.800;2022-11-20T13:35:36;8.90;99.90
22779;DHT22;11556;51.194;3.800;2022-11-20T13:40:33;8.90;99.90
22779;DHT22;11556;51.194;3.800;2022-11-20T13:46:01;8.90;99.90
22779;DHT22;11556;51.194;3.800;2022-11-20T13:48:34;8.90;99.90
22779;DHT22;11556;51.194;3.800;2022-11-20T13:59:43;9.10;99.90
22779;DHT22;11556;51.194;3.800;2022-11-20T14:02:16;9.10;99.90
22779;DHT22;11556;51.194;3.800;2022-11-20T14:04:49;9.20;99.90
22779;DHT22;11556;51.194;3.800;2022-11-20T14:07:17;9.10;99.90
22779;DHT22;11556;51.194;3.800;2022-11-20T14:09:55;9.10;99.90
22779;DHT22;11556;51.194;3.800;2022-11-20T14:12:32;9.20;99.90
22779;DHT22;11556;51.194;3.800;2022-11-20T14:14:58;9.40;99.90
22779;DHT22;11556;51.194;3.800;2022-11-20T14:17:33;9.20;99.90
22779;DHT22;11556;51.194;3.800;2022-11-20T14:20:11;9.30;99.90
22779;DHT22;11556;51.194;3.800;2022-11-20T14:22:37;9.30;99.90
22779;DHT22;11556;51.194;3.800;2022-11-20T14:27:39;9.20;99.90
22779;DHT22;11556;51.194;3.800;2022-11-20T14:30:11;9.20;99.90
22779;DHT22;11556;51.194;3.800;2022-11-20T14:32:38;9.20;99.90
22779;DHT22;11556;51.194;3.800;2022-11-20T14:35:08;9.30;99.90
22779;DHT22;11556;51.194;3.800;2022-11-20T14:37:37;9.40;99.90
22779;DHT22;11556;51.194;3.800;2022-11-20T14:40:21;9.50;99.90
22779;DHT22;11556;51.194;3.800;2022-11-20T14:42:47;9.50;99.90
22779;DHT22;11556;51.194;3.800;2022-11-20T14:45:13;9.60;99.90
22779;DHT22;11556;51.194;3.800;2022-11-20T14:47:40;9.60;99.90
22779;DHT22;11556;51.194;3.800;2022-11-20T14:50:14;9.60;99.90
22779;DHT22;11556;51.194;3.800;2022-11-20T14:52:59;9.70;99.90
22779;DHT22;11556;51.194;3.800;2022-11-20T14:55:33;9.90;99.90
22779;DHT22;11556;51.194;3.800;2022-11-20T14:58:05;10.10;99.90
22779;DHT22;11556;51.194;3.800;2022-11-20T15:00:32;10.30;99.90
22779;DHT22;11556;51.194;3.800;2022-11-20T15:02:58;10.50;99.90
22779;DHT22;11556;51.194;3.800;2022-11-20T15:05:36;10.60;99.90
22779;DHT22;11556;51.194;3.800;2022-11-20T15:08:10;10.60;99.90
22779;DHT22;11556;51.194;3.800;2022-11-20T15:10:36;10.70;99.90
22779;DHT22;11556;51.194;3.800;2022-11-20T15:13:05;10.70;99.90
22779;DHT22;11556;51.194;3.800;2022-11-20T15:15:49;10.60;99.90
22779;DHT22;11556;51.194;3.800;2022-11-20T15:18:22;10.60;99.90
22779;DHT22;11556;51.194;3.800;2022-11-20T15:20:48;10.60;99.90
22779;DHT22;11556;51.194;3.800;2022-11-20T15:23:15;10.70;99.90
22779;DHT22;11556;51.194;3.800;2022-11-20T15:25:43;10.60;99.90
22779;DHT22;11556;51.194;3.800;2022-11-20T15:28:20;10.60;99.90
22779;DHT22;11556;51.194;3.800;2022-11-20T15:30:48;10.60;99.90
22779;DHT22;11556;51.194;3.800;2022-11-20T15:33:14;10.50;99.90
22779;DHT22;11556;51.194;3.800;2022-11-20T15:35:40;10.40;99.90
22779;DHT22;11556;51.194;3.800;2022-11-20T15:38:05;10.40;99.90
22779;DHT22;11556;51.194;3.800;2022-11-20T15:40:31;10.20;99.90
22779;DHT22;11556;51.194;3.800;2022-11-20T15:42:57;10.20;99.90
22779;DHT22;11556;51.194;3.800;2022-11-20T15:45:42;10.10;99.90
22779;DHT22;11556;51.194;3.800;2022-11-20T15:48:12;10.10;99.90
22779;DHT22;11556;51.194;3.800;2022-11-20T15:51:01;10.10;99.90
22779;DHT22;11556;51.194;3.800;2022-11-20T15:53:28;10.10;99.90
22779;DHT22;11556;51.194;3.800;2022-11-20T15:55:53;10.00;99.90
22779;DHT22;11556;51.194;3.800;2022-11-20T15:58:19;10.00;99.90
22779;DHT22;11556;51.194;3.800;2022-11-20T16:00:46;10.00;99.90
22779;DHT22;11556;51.194;3.800;2022-11-20T16:03:13;10.00;99.90
22779;DHT22;11556;51.194;3.800;2022-11-20T16:05:39;9.90;99.90
22779;DHT22;11556;51.194;3.800;2022-11-20T16:08:05;10.00;99.90
22779;DHT22;11556;51.194;3.800;2022-11-20T16:10:30;9.90;99.90
22779;DHT22;11556;51.194;3.800;2022-11-20T16:12:56;9.90;99.90
22779;DHT22;11556;51.194;3.800;2022-11-20T16:15:40;9.90;99.90
22779;DHT22;11556;51.194;3.800;2022-11-20T16:18:14;9.80;99.90
22779;DHT22;11556;51.194;3.800;2022-11-20T16:20:40;9.80;99.90
22779;DHT22;11556;51.194;3.800;2022-11-20T16:23:06;9.80;99.90
22779;DHT22;11556;51.194;3.800;2022-11-20T16:25:32;9.80;99.90
22779;DHT22;11556;51.194;3.800;2022-11-20T16:27:58;9.70;99.90
22779;DHT22;11556;51.194;3.800;2022-11-20T16:30:24;9.70;99.90
22779;DHT22;11556;51.194;3.800;2022-11-20T16:32:50;9.70;99.90
22779;DHT22;11556;51.194;3.800;2022-11-20T16:35:15;9.60;99.90
22779;DHT22;11556;51.194;3.800;2022-11-20T16:37:41;9.80;99.90
22779;DHT22;11556;51.194;3.800;2022-11-20T16:40:09;9.90;99.90
22779;DHT22;11556;51.194;3.800;2022-11-20T16:42:36;10.00;99.90
22779;DHT22;11556;51.194;3.800;2022-11-20T16:45:02;10.00;99.90
22779;DHT22;11556;51.194;3.800;2022-11-20T16:47:28;10.20;99.90
22779;DHT22;11556;51.194;3.800;2022-11-20T16:49:53;10.20;99.90
22779;DHT22;11556;51.194;3.800;2022-11-20T16:52:19;10.20;99.90
22779;DHT22;11556;51.194;3.800;2022-11-20T16:54:44;10.10;99.90
22779;DHT22;11556;51.194;3.800;2022-11-20T16:57:10;10.00;99.90
22779;DHT22;11556;51.194;3.800;2022-11-20T16:59:35;10.00;99.90
22779;DHT22;11556;51.194;3.800;2022-11-20T17:02:01;9.90;99.90
22779;DHT22;11556;51.194;3.800;2022-11-20T17:04:26;9.80;99.90
22779;DHT22;11556;51.194;3.800;2022-11-20T17:06:52;9.70;99.90
22779;DHT22;11556;51.194;3.800;2022-11-20T17:09:17;9.70;99.90
22779;DHT22;11556;51.194;3.800;2022-11-20T17:11:43;9.60;99.90
22779;DHT22;11556;51.194;3.800;2022-11-20T17:14:10;9.50;99.90
22779;DHT22;11556;51.194;3.800;2022-11-20T17:16:36;9.40;99.90
22779;DHT22;11556;51.194;3.800;2022-11-20T17:19:03;9.40;99.90
22779;DHT22;11556;51.194;3.800;2022-11-20T17:21:31;9.40;99.90
22779;DHT22;11556;51.194;3.800;2022-11-20T17:24:00;9.60;99.90
22779;DHT22;11556;51.194;3.800;2022-11-20T17:26:26;9.40;99.90
22779;DHT22;11556;51.194;3.800;2022-11-20T17:28:58;9.40;99.90
22779;DHT22;11556;51.194;3.800;2022-11-20T17:31:26;9.40;99.90
22779;DHT22;11556;51.194;3.800;2022-11-20T17:33:52;9.30;99.90
22779;DHT22;11556;51.194;3.800;2022-11-20T17:36:18;9.30;99.90